createdAt,value
2023-05-10T00:03:16.006Z,12.93
2023-05-10T00:08:17.715Z,13.01
2023-05-10T00:13:19.431Z,12.96
2023-05-10T00:18:21.228Z,12.83
2023-05-10T00:23:22.919Z,12.76
2023-05-10T00:28:24.532Z,12.64
2023-05-10T00:33:26.209Z,12.58
2023-05-10T00:38:27.803Z,12.50
2023-05-10T00:43:29.523Z,12.46
2023-05-10T00:48:31.307Z,12.41
2023-05-10T00:53:36.195Z,12.39
2023-05-10T00:58:37.885Z,12.28
2023-05-10T01:03:40.199Z,12.28
2023-05-10T01:08:42.012Z,12.29
2023-05-10T01:13:44.331Z,12.20
2023-05-10T01:18:46.279Z,12.16
2023-05-10T01:24:09.249Z,12.08
2023-05-10T01:29:23.774Z,12.03
2023-05-10T01:34:29.913Z,11.93
2023-05-10T01:39:46.163Z,11.90
2023-05-10T01:44:58.526Z,11.82
2023-05-10T01:50:01.165Z,11.72
2023-05-10T01:55:07.874Z,11.63
2023-05-10T02:00:11.661Z,11.54
2023-05-10T02:05:17.638Z,11.41
2023-05-10T02:10:19.934Z,11.36
2023-05-10T02:15:24.332Z,11.26
2023-05-10T02:20:27.441Z,11.25
2023-05-10T02:25:30.351Z,11.14
2023-05-10T02:30:33.553Z,11.05
2023-05-10T02:35:36.111Z,11.01
2023-05-10T02:40:38.508Z,10.95
2023-05-10T02:45:40.882Z,10.92
2023-05-10T02:50:45.197Z,10.87
2023-05-10T02:55:51.436Z,10.82
2023-05-10T03:00:53.269Z,10.79
2023-05-10T03:05:56.876Z,10.72
2023-05-10T03:11:02.771Z,10.70
2023-05-10T03:16:11.404Z,10.70
2023-05-10T03:21:16.238Z,10.67
2023-05-10T03:26:30.890Z,10.62
2023-05-10T03:31:40.797Z,10.65
2023-05-10T03:36:42.573Z,10.61
2023-05-10T03:41:44.790Z,10.59
2023-05-10T03:46:46.606Z,10.63
2023-05-10T03:51:48.393Z,10.59
2023-05-10T03:56:51.236Z,10.58
2023-05-10T04:01:54.850Z,10.59
2023-05-10T04:06:56.682Z,10.60
2023-05-10T04:11:59.852Z,10.68
2023-05-10T04:17:02.138Z,10.72
2023-05-10T04:22:04.216Z,10.84
2023-05-10T04:27:06.008Z,10.97
2023-05-10T04:32:07.616Z,11.10
2023-05-10T04:37:09.281Z,11.29
2023-05-10T04:42:11.229Z,11.45
2023-05-10T04:47:14.208Z,11.61
2023-05-10T04:52:18.400Z,11.76
2023-05-10T04:57:20.066Z,11.92
2023-05-10T05:02:22.042Z,12.09
2023-05-10T05:07:23.744Z,12.22
2023-05-10T05:12:25.491Z,12.52
2023-05-10T05:17:27.264Z,12.86
2023-05-10T05:22:29.472Z,13.68
2023-05-10T05:27:31.156Z,13.50
2023-05-10T05:32:32.818Z,14.42
2023-05-10T05:37:34.563Z,15.13
2023-05-10T05:42:36.381Z,15.11
2023-05-10T05:47:38.059Z,14.95
2023-05-10T05:52:40.256Z,15.02
2023-05-10T05:57:42.078Z,14.80
2023-05-10T06:02:43.896Z,15.42
2023-05-10T06:07:45.595Z,15.73
2023-05-10T06:12:47.302Z,16.25
2023-05-10T06:17:50.327Z,16.16
2023-05-10T06:22:51.985Z,16.01
2023-05-10T06:27:58.255Z,16.07
2023-05-10T06:33:00.332Z,16.48
2023-05-10T06:38:02.031Z,16.33
2023-05-10T06:43:03.663Z,16.30
2023-05-10T06:48:05.515Z,16.31
2023-05-10T06:53:07.400Z,16.80
2023-05-10T06:58:09.047Z,16.64
2023-05-10T07:03:11.762Z,16.59
2023-05-10T07:08:14.412Z,16.50
2023-05-10T07:13:16.138Z,16.68
2023-05-10T07:18:18.005Z,16.88
2023-05-10T07:23:20.331Z,16.82
2023-05-10T07:28:23.086Z,16.81
2023-05-10T07:33:24.687Z,16.51
2023-05-10T07:38:26.753Z,16.97
2023-05-10T07:43:28.782Z,16.84
2023-05-10T07:48:30.425Z,17.17
2023-05-10T07:53:32.041Z,16.98
2023-05-10T07:58:33.716Z,16.96
2023-05-10T08:03:35.419Z,17.11
2023-05-10T08:08:37.328Z,16.91
2023-05-10T08:13:39.019Z,17.43
2023-05-10T08:18:41.086Z,17.48
2023-05-10T08:23:44.578Z,17.36
2023-05-10T08:28:46.339Z,17.81
2023-05-10T08:33:48.045Z,17.85
2023-05-10T08:38:53.203Z,18.07
2023-05-10T08:43:55.428Z,17.76
2023-05-10T08:48:58.043Z,17.75
2023-05-10T08:54:00.172Z,17.91
2023-05-10T08:59:02.113Z,18.01
2023-05-10T09:04:05.333Z,18.24
2023-05-10T09:09:07.531Z,18.19
2023-05-10T09:14:10.466Z,18.36
2023-05-10T09:19:12.366Z,18.33
2023-05-10T09:24:14.110Z,18.39
2023-05-10T09:29:17.488Z,18.43
2023-05-10T09:34:20.566Z,18.67
2023-05-10T09:39:22.324Z,18.40
2023-05-10T09:44:23.969Z,18.71
2023-05-10T09:49:25.680Z,18.79
2023-05-10T09:54:27.340Z,18.86
2023-05-10T09:59:29.648Z,18.65
2023-05-10T10:04:31.508Z,18.90
2023-05-10T10:09:34.021Z,19.08
2023-05-10T10:14:35.781Z,19.19
2023-05-10T10:19:37.892Z,19.21
2023-05-10T10:24:43.029Z,19.16
2023-05-10T10:29:59.927Z,19.32
2023-05-10T10:35:01.698Z,19.37
2023-05-10T10:40:23.896Z,19.20
2023-05-10T10:45:26.773Z,19.35
2023-05-10T10:50:28.433Z,19.10
2023-05-10T10:55:31.323Z,19.08
2023-05-10T11:00:36.674Z,19.07
2023-05-10T11:05:45.946Z,19.03
2023-05-10T11:11:00.850Z,19.14
2023-05-10T11:16:28.023Z,19.35
2023-05-10T11:21:31.928Z,19.23
2023-05-10T11:26:36.110Z,19.42
2023-05-10T11:31:45.097Z,19.48
2023-05-10T11:36:52.330Z,19.55
2023-05-10T11:41:54.097Z,19.49
2023-05-10T11:46:55.916Z,19.37
2023-05-10T11:52:08.118Z,19.61
2023-05-10T11:57:09.816Z,19.94
2023-05-10T12:02:12.081Z,19.61
2023-05-10T12:07:13.790Z,19.55
2023-05-10T12:12:18.458Z,19.85
2023-05-10T12:17:20.112Z,19.89
2023-05-10T12:22:22.301Z,19.96
2023-05-10T12:27:24.005Z,20.08
2023-05-10T12:32:38.826Z,20.41
2023-05-10T12:37:40.781Z,20.32
2023-05-10T12:42:42.613Z,20.10
2023-05-10T12:47:44.326Z,19.77
2023-05-10T12:52:46.221Z,20.03
2023-05-10T12:57:50.896Z,20.09
2023-05-10T13:02:53.423Z,20.26
2023-05-10T13:07:55.068Z,20.11
2023-05-10T13:12:57.057Z,20.14
2023-05-10T13:17:58.796Z,20.12
2023-05-10T13:23:00.893Z,20.04
2023-05-10T13:28:06.596Z,20.07
2023-05-10T13:33:08.364Z,19.92
2023-05-10T13:38:10.328Z,19.95
2023-05-10T13:43:12.226Z,20.12
2023-05-10T13:48:13.874Z,20.05
2023-05-10T13:53:15.642Z,20.06
2023-05-10T13:58:17.320Z,20.40
2023-05-10T14:03:19.096Z,20.67
2023-05-10T14:08:21.223Z,20.78
2023-05-10T14:13:23.147Z,20.86
2023-05-10T14:18:24.993Z,20.70
2023-05-10T14:23:27.014Z,20.72
2023-05-10T14:28:28.760Z,20.66
2023-05-10T14:33:30.620Z,20.66
2023-05-10T14:38:32.270Z,20.62
2023-05-10T14:43:33.975Z,20.39
2023-05-10T14:48:35.892Z,20.35
2023-05-10T14:53:37.631Z,20.34
2023-05-10T14:58:39.338Z,20.15
2023-05-10T15:03:41.525Z,20.13
2023-05-10T15:08:44.403Z,20.06
2023-05-10T15:13:46.165Z,19.93
2023-05-10T15:18:47.978Z,19.80
2023-05-10T15:23:49.862Z,19.78
2023-05-10T15:28:51.512Z,19.61
2023-05-10T15:33:53.307Z,19.34
2023-05-10T15:38:55.746Z,19.12
2023-05-10T15:44:00.543Z,19.36
2023-05-10T15:49:02.519Z,19.39
2023-05-10T15:54:07.483Z,19.17
2023-05-10T15:59:11.583Z,18.94
2023-05-10T16:04:13.838Z,18.70
2023-05-10T16:09:15.827Z,18.54
2023-05-10T16:14:17.541Z,18.41
2023-05-10T16:19:19.304Z,18.32
2023-05-10T16:24:21.133Z,18.15
2023-05-10T16:29:23.009Z,18.06
2023-05-10T16:34:25.434Z,17.99
2023-05-10T16:39:27.205Z,17.92
2023-05-10T16:44:28.942Z,17.88
2023-05-10T16:49:30.666Z,17.79
2023-05-10T16:54:32.323Z,17.61
2023-05-10T16:59:34.013Z,17.63
2023-05-10T17:04:35.786Z,17.52
2023-05-10T17:09:37.456Z,17.44
2023-05-10T17:14:40.014Z,17.37
2023-05-10T17:19:44.943Z,17.30
2023-05-10T17:24:46.686Z,17.22
2023-05-10T17:29:48.321Z,17.18
2023-05-10T17:34:49.935Z,17.14
2023-05-10T17:39:51.866Z,17.07
2023-05-10T17:44:53.523Z,16.85
2023-05-10T17:49:55.193Z,16.56
2023-05-10T17:54:57.093Z,16.38
2023-05-10T17:59:58.770Z,16.33
2023-05-10T18:05:01.749Z,16.25
2023-05-10T18:10:03.684Z,16.17
2023-05-10T18:15:06.093Z,16.10
2023-05-10T18:20:08.633Z,16.05
2023-05-10T18:25:10.361Z,16.03
2023-05-10T18:30:12.726Z,16.00
2023-05-10T18:35:14.684Z,15.95
2023-05-10T18:40:17.295Z,15.85
2023-05-10T18:45:19.301Z,15.78
2023-05-10T18:50:21.498Z,15.76
2023-05-10T18:55:25.723Z,15.72
2023-05-10T19:00:27.460Z,15.67
2023-05-10T19:05:31.518Z,15.58
2023-05-10T19:10:33.175Z,15.44
2023-05-10T19:15:34.831Z,15.31
2023-05-10T19:20:38.507Z,15.24
2023-05-10T19:25:42.282Z,15.23
2023-05-10T19:30:44.028Z,15.21
2023-05-10T19:35:45.901Z,15.23
2023-05-10T19:40:49.318Z,15.20
2023-05-10T19:45:51.338Z,15.20
2023-05-10T19:50:53.962Z,15.25
2023-05-10T19:55:56.420Z,15.20
2023-05-10T20:00:58.133Z,15.08
2023-05-10T20:06:00.336Z,14.97
2023-05-10T20:11:03.816Z,14.81
2023-05-10T20:16:06.706Z,14.67
2023-05-10T20:21:08.318Z,14.60
2023-05-10T20:26:09.936Z,14.45
2023-05-10T20:31:11.779Z,14.52
2023-05-10T20:36:13.831Z,14.49
2023-05-10T20:41:15.515Z,14.38
2023-05-10T20:46:17.244Z,14.27
2023-05-10T20:51:19.022Z,14.16
2023-05-10T20:56:21.468Z,14.11
2023-05-10T21:01:23.277Z,13.99
2023-05-10T21:06:25.595Z,13.89
2023-05-10T21:11:27.230Z,13.80
2023-05-10T21:16:28.902Z,13.72
2023-05-10T21:21:31.045Z,13.68
2023-05-10T21:26:32.739Z,13.57
2023-05-10T21:31:34.518Z,13.49
2023-05-10T21:36:36.237Z,13.39
2023-05-10T21:41:38.183Z,13.31
2023-05-10T21:46:44.970Z,13.25
2023-05-10T21:51:47.323Z,13.15
2023-05-10T21:56:49.100Z,13.07
2023-05-10T22:01:50.826Z,12.99
2023-05-10T22:06:52.922Z,12.93
2023-05-10T22:11:54.536Z,12.88
2023-05-10T22:16:57.781Z,12.83
2023-05-10T22:21:59.540Z,12.73
2023-05-10T22:27:02.870Z,12.74
2023-05-10T22:32:05.912Z,12.66
2023-05-10T22:37:08.248Z,12.64
2023-05-10T22:42:10.005Z,12.62
2023-05-10T22:47:11.770Z,12.61
2023-05-10T22:52:13.461Z,12.58
2023-05-10T22:57:16.073Z,12.50
2023-05-10T23:02:18.036Z,12.43
2023-05-10T23:07:20.047Z,12.42
2023-05-10T23:12:21.820Z,12.31
2023-05-10T23:17:23.527Z,12.25
2023-05-10T23:22:25.563Z,12.27
2023-05-10T23:27:30.826Z,12.30
2023-05-10T23:32:32.949Z,12.24
2023-05-10T23:37:34.797Z,12.21
2023-05-10T23:42:36.454Z,12.19
2023-05-10T23:47:38.164Z,12.17
2023-05-10T23:52:39.952Z,12.17
2023-05-10T23:57:41.608Z,12.11
